Time;durP1;ratioP1;P1;durP2;ratioP2;P2;SDS_P1;SDS_P2;PMS_P1;PMS_P2;Temp;Humidity;BMP_temperature;BMP_pressure;BME280_temperature;BME280_humidity;BME280_pressure;Samples;Min_cycle;Max_cycle;Signal;HPM_P1;HPM_P2
2021/10/06 10:52:06;;;;;;;9.60;1.55;;;15.00;99.90;;;;;;11911058;28;20056;-63
2021/10/06 11:04:21;;;;;;;9.77;1.33;;;16.50;99.90;;;;;;11938301;28;20056;-62
2021/10/06 11:17:37;;;;;;;12.10;2.25;;;16.50;99.90;;;;;;11966968;27;20420;-63
2021/10/06 11:23:57;;;;;;;11.77;2.47;;;16.50;99.90;;;;;;11937752;28;20421;-63
2021/10/06 11:36:31;;;;;;;10.00;1.58;;;16.60;99.90;;;;;;12023246;28;20042;-62
2021/10/06 11:42:32;;;;;;;9.43;1.45;;;16.80;99.90;;;;;;11999866;28;20071;-62
2021/10/06 11:48:27;;;;;;;6.57;1.50;;;17.00;99.90;;;;;;11966865;28;20124;-61
2021/10/06 12:00:18;;;;;;;11.77;1.50;;;17.10;99.90;;;;;;11879967;28;20052;-61
2021/10/06 12:06:10;;;;;;;9.85;1.50;;;17.20;99.90;;;;;;11941482;28;20178;-62
2021/10/06 12:11:59;;;;;;;7.82;1.65;;;17.50;99.90;;;;;;11954540;28;20188;-62
2021/10/06 12:17:56;;;;;;;11.55;1.20;;;17.70;99.90;;;;;;11943959;28;20140;-62
2021/10/06 12:23:43;;;;;;;10.23;1.35;;;17.60;99.90;;;;;;11959946;28;20053;-62
2021/10/06 12:29:35;;;;;;;7.63;1.40;;;17.60;99.90;;;;;;11943861;28;20478;-61
2021/10/06 12:35:26;;;;;;;12.15;1.83;;;17.40;99.90;;;;;;11932570;28;20057;-61
2021/10/06 12:41:25;;;;;;;6.40;1.63;;;17.10;99.90;;;;;;11907730;28;20041;-61
2021/10/06 12:47:15;;;;;;;8.23;1.42;;;17.10;99.90;;;;;;11868881;28;20513;-61
2021/10/06 12:53:38;;;;;;;12.20;1.65;;;17.60;99.90;;;;;;11921146;28;20058;-61
2021/10/06 12:59:51;;;;;;;8.85;1.45;;;18.00;99.90;;;;;;11889857;28;20167;-61
2021/10/06 13:05:39;;;;;;;8.88;2.13;;;17.30;99.90;;;;;;11931678;28;20057;-61
2021/10/06 13:17:45;;;;;;;12.03;3.63;;;17.30;99.90;;;;;;11884132;28;20052;-61
2021/10/06 13:23:39;;;;;;;5.88;1.85;;;17.20;99.90;;;;;;11897199;28;20045;-61
2021/10/06 13:29:29;;;;;;;6.47;2.17;;;17.30;99.90;;;;;;11913273;28;20136;-61
2021/10/06 13:35:56;;;;;;;8.68;3.00;;;17.80;99.90;;;;;;11897267;28;20045;-61
2021/10/06 13:42:08;;;;;;;7.60;1.50;;;18.10;99.90;;;;;;11880494;28;20445;-61
2021/10/06 13:47:56;;;;;;;7.35;1.27;;;18.50;99.90;;;;;;11896049;28;20052;-60
2021/10/06 13:53:45;;;;;;;11.02;1.70;;;18.50;99.90;;;;;;11904812;28;20060;-61
2021/10/06 13:59:58;;;;;;;7.38;1.40;;;18.40;99.90;;;;;;11902151;28;20093;-63
2021/10/06 14:11:45;;;;;;;9.23;1.40;;;18.00;99.90;;;;;;11926003;28;20065;-62
2021/10/06 14:17:42;;;;;;;11.75;1.55;;;17.80;99.90;;;;;;11928718;28;20068;-62
2021/10/06 14:23:29;;;;;;;6.07;1.50;;;17.60;99.90;;;;;;11890060;28;20046;-62
2021/10/06 14:29:18;;;;;;;4.57;1.40;;;18.20;99.90;;;;;;11880173;28;20054;-63
2021/10/06 14:35:23;;;;;;;8.63;1.02;;;18.40;99.90;;;;;;11902298;28;20140;-63
2021/10/06 14:41:11;;;;;;;8.80;1.88;;;18.00;99.90;;;;;;11891976;28;20092;-61
2021/10/06 14:47:00;;;;;;;5.63;1.77;;;17.50;99.90;;;;;;11889775;28;20064;-61
2021/10/06 14:52:57;;;;;;;4.18;1.45;;;17.10;99.90;;;;;;11905272;28;20478;-62
2021/10/06 14:58:48;;;;;;;5.45;1.27;;;17.20;99.90;;;;;;11894171;28;20049;-62
2021/10/06 15:10:38;;;;;;;9.60;1.10;;;17.60;99.90;;;;;;11944945;28;20045;-62
2021/10/06 15:16:25;;;;;;;4.35;1.02;;;18.00;99.90;;;;;;11912263;28;20156;-61
2021/10/06 15:22:13;;;;;;;10.50;1.30;;;18.40;99.90;;;;;;11920436;28;20548;-62
2021/10/06 15:28:18;;;;;;;7.28;1.25;;;18.80;99.90;;;;;;11959674;28;20425;-62
2021/10/06 15:34:06;;;;;;;4.28;1.15;;;18.80;99.00;;;;;;11927146;28;20049;-63
2021/10/06 15:39:53;;;;;;;4.18;1.10;;;18.60;99.60;;;;;;11922937;28;20062;-62
2021/10/06 15:45:49;;;;;;;9.77;1.00;;;18.80;99.10;;;;;;11912911;28;20373;-64
2021/10/06 15:51:48;;;;;;;10.43;3.05;;;19.00;98.00;;;;;;11923616;28;20089;-63
2021/10/06 15:57:35;;;;;;;7.53;1.25;;;18.80;98.40;;;;;;11906764;28;20192;-63
2021/10/06 16:03:42;;;;;;;9.38;1.35;;;18.70;98.90;;;;;;11848913;28;20100;-63
2021/10/06 16:15:30;;;;;;;7.40;1.20;;;18.70;99.90;;;;;;11909690;28;20045;-62
2021/10/06 16:21:41;;;;;;;10.85;1.70;;;18.80;99.90;;;;;;11904706;28;20120;-63
2021/10/06 16:27:29;;;;;;;7.15;1.35;;;18.30;99.90;;;;;;11906734;28;20057;-62
2021/10/06 16:33:19;;;;;;;4.35;1.42;;;17.90;99.90;;;;;;11904369;28;20110;-63
2021/10/06 16:39:15;;;;;;;6.40;1.20;;;18.00;99.90;;;;;;11875453;28;20107;-63
2021/10/06 16:45:11;;;;;;;6.93;1.92;;;17.70;99.90;;;;;;11910227;28;20052;-63
2021/10/06 16:57:15;;;;;;;10.00;1.63;;;17.40;99.90;;;;;;11948679;28;20939;-63
2021/10/06 17:03:10;;;;;;;6.43;1.27;;;17.30;99.90;;;;;;11943046;28;20616;-63
2021/10/06 17:09:00;;;;;;;9.20;2.10;;;16.80;99.90;;;;;;11912662;28;20053;-63
2021/10/06 17:14:57;;;;;;;6.70;1.30;;;16.60;99.90;;;;;;11919747;28;20084;-63
2021/10/06 17:20:46;;;;;;;2.30;1.20;;;16.70;99.90;;;;;;11969242;28;20061;-62
2021/10/06 17:26:44;;;;;;;6.97;1.80;;;16.80;99.90;;;;;;11919263;28;20506;-63
2021/10/06 17:32:49;;;;;;;6.85;1.83;;;16.90;99.90;;;;;;11930881;28;20514;-63
2021/10/06 17:38:38;;;;;;;7.05;2.08;;;16.80;99.90;;;;;;11886798;28;20148;-63
2021/10/06 17:44:27;;;;;;;5.85;1.80;;;16.70;99.90;;;;;;11910368;28;20056;-62
2021/10/06 17:50:43;;;;;;;5.15;1.63;;;16.70;99.90;;;;;;11936835;28;20472;-63
2021/10/06 18:08:39;;;;;;;8.05;2.75;;;16.70;99.90;;;;;;11838706;28;20115;-63
2021/10/06 18:14:36;;;;;;;12.80;2.13;;;16.60;99.90;;;;;;11884408;28;21257;-63
2021/10/06 18:27:06;;;;;;;14.65;2.47;;;16.60;99.90;;;;;;11938062;28;20065;-64
2021/10/06 18:33:10;;;;;;;8.18;2.17;;;16.50;99.90;;;;;;11856204;28;20079;-63
2021/10/06 18:45:39;;;;;;;11.25;2.05;;;16.20;99.90;;;;;;11942632;28;20041;-63
2021/10/06 18:51:43;;;;;;;8.48;1.65;;;16.10;99.90;;;;;;11918384;28;20132;-63
2021/10/06 18:57:34;;;;;;;8.60;2.28;;;16.00;99.90;;;;;;11948174;28;20555;-65
2021/10/06 19:03:25;;;;;;;8.18;2.30;;;16.00;99.90;;;;;;11947942;28;20539;-63
2021/10/06 19:09:28;;;;;;;8.10;2.40;;;16.00;99.90;;;;;;11924606;28;20061;-64
2021/10/06 19:15:19;;;;;;;;;;;15.90;99.90;;;;;;11923469;28;20127;-64
2021/10/06 19:21:10;;;;;;;9.77;2.22;;;15.90;99.90;;;;;;11952461;28;19921;-63
2021/10/06 19:27:19;;;;;;;8.05;1.80;;;15.80;99.90;;;;;;11940420;28;21567;-63
2021/10/06 19:33:07;;;;;;;6.63;1.67;;;15.70;99.90;;;;;;11907080;28;20517;-64
2021/10/06 19:38:56;;;;;;;12.40;2.45;;;15.60;99.90;;;;;;11903901;28;20061;-64
2021/10/06 19:44:53;;;;;;;13.95;2.70;;;15.60;99.90;;;;;;11905377;28;20099;-63
